createdAt,value
2018-06-20T00:00:09.144Z,101907.55
2018-06-20T00:02:37.523Z,101907.89
2018-06-20T00:05:05.952Z,101907.89
2018-06-20T00:07:34.331Z,101905.20
2018-06-20T00:10:02.741Z,101905.20
2018-06-20T00:12:31.077Z,101905.20
2018-06-20T00:14:59.475Z,101908.88
2018-06-20T00:17:27.809Z,101900.50
2018-06-20T00:19:56.199Z,101892.95
2018-06-20T00:22:24.844Z,101892.95
2018-06-20T00:24:53.167Z,101893.95
2018-06-20T00:27:21.519Z,101894.45
2018-06-20T00:29:49.883Z,101883.41
2018-06-20T00:32:18.324Z,101881.39
2018-06-20T00:34:46.762Z,101884.91
2018-06-20T00:37:15.160Z,101885.41
2018-06-20T00:39:43.533Z,101885.06
2018-06-20T00:42:11.967Z,101886.56
2018-06-20T00:44:40.347Z,101887.55
2018-06-20T00:47:08.757Z,101889.89
2018-06-20T00:49:37.159Z,101888.20
2018-06-20T00:52:05.528Z,101881.16
2018-06-20T00:54:33.982Z,101886.03
2018-06-20T00:57:02.367Z,101883.34
2018-06-20T00:59:30.762Z,101881.51
2018-06-20T01:01:59.160Z,101878.33
2018-06-20T01:04:27.579Z,101879.52
2018-06-20T01:06:55.953Z,101873.31
2018-06-20T01:09:24.361Z,101877.67
2018-06-20T01:11:52.868Z,101874.66
2018-06-20T01:14:21.127Z,101870.97
2018-06-20T01:16:49.495Z,101872.31
2018-06-20T01:19:17.907Z,101870.32
2018-06-20T01:21:46.254Z,101857.91
2018-06-20T01:24:15.024Z,101862.44
2018-06-20T01:26:43.422Z,101861.28
2018-06-20T01:29:11.827Z,101863.96
2018-06-20T01:31:40.219Z,101863.46
2018-06-20T01:34:08.539Z,101861.94
2018-06-20T01:36:36.918Z,101867.80
2018-06-20T01:39:08.067Z,101862.44
2018-06-20T01:41:36.474Z,101865.95
2018-06-20T01:44:05.199Z,101857.07
2018-06-20T01:46:33.594Z,101853.20
2018-06-20T01:49:02.010Z,101860.94
2018-06-20T01:51:30.428Z,101859.59
2018-06-20T01:53:58.799Z,101853.55
2018-06-20T01:56:27.196Z,101857.23
2018-06-20T01:58:55.539Z,101850.19
2018-06-20T02:01:23.959Z,101851.02
2018-06-20T02:03:52.354Z,101847.50
2018-06-20T02:06:20.760Z,101850.52
2018-06-20T02:08:52.299Z,101848.84
2018-06-20T02:11:20.715Z,101849.84
2018-06-20T02:13:49.121Z,101846.81
2018-06-20T02:16:17.552Z,101849.16
2018-06-20T02:18:45.952Z,101842.08
2018-06-20T02:21:14.397Z,101839.05
2018-06-20T02:23:42.824Z,101843.42
2018-06-20T02:26:11.236Z,101838.05
2018-06-20T02:28:39.639Z,101839.77
2018-06-20T02:31:08.361Z,101840.62
2018-06-20T02:33:37.061Z,101834.91
2018-06-20T02:36:10.888Z,101828.67
2018-06-20T02:38:39.493Z,101833.57
2018-06-20T02:41:07.908Z,101828.55
2018-06-20T02:43:36.316Z,101826.37
2018-06-20T02:46:04.800Z,101830.02
2018-06-20T02:48:33.244Z,101830.02
2018-06-20T02:51:01.640Z,101821.29
2018-06-20T02:53:30.022Z,101820.95
2018-06-20T02:55:58.416Z,101825.81
2018-06-20T02:58:26.854Z,101820.95
2018-06-20T03:00:55.447Z,101820.30
2018-06-20T03:03:23.851Z,101823.63
2018-06-20T03:05:52.261Z,101820.45
2018-06-20T03:08:20.668Z,101825.81
2018-06-20T03:10:49.076Z,101822.29
2018-06-20T03:13:17.553Z,101821.63
2018-06-20T03:15:46.791Z,101817.95
2018-06-20T03:18:15.144Z,101820.17
2018-06-20T03:20:43.527Z,101819.67
2018-06-20T03:23:11.924Z,101818.83
2018-06-20T03:25:40.362Z,101818.33
2018-06-20T03:28:08.708Z,101825.03
2018-06-20T03:30:37.122Z,101820.64
2018-06-20T03:33:05.506Z,101824.66
2018-06-20T03:35:33.944Z,101824.31
2018-06-20T03:38:02.279Z,101814.93
2018-06-20T03:40:30.652Z,101810.91
2018-06-20T03:42:59.039Z,101806.89
2018-06-20T03:45:27.489Z,101803.71
2018-06-20T03:47:55.855Z,101802.87
2018-06-20T03:50:24.252Z,101805.89
2018-06-20T03:52:52.681Z,101812.13
2018-06-20T03:55:21.135Z,101804.09
2018-06-20T03:57:49.484Z,101805.05
2018-06-20T04:00:17.934Z,101804.71
2018-06-20T04:02:46.328Z,101800.19
2018-06-20T04:05:14.713Z,101804.21
2018-06-20T04:07:43.332Z,101805.55
2018-06-20T04:10:11.631Z,101807.61
2018-06-20T04:12:40.100Z,101805.55
2018-06-20T04:15:08.442Z,101810.91
2018-06-20T04:17:36.864Z,101805.89
2018-06-20T04:20:05.261Z,101802.38
2018-06-20T04:22:33.595Z,101803.21
2018-06-20T04:25:01.956Z,101800.53
2018-06-20T04:27:31.127Z,101802.09
2018-06-20T04:29:59.501Z,101794.55
2018-06-20T04:32:27.911Z,101801.94
2018-06-20T04:34:56.299Z,101796.57
2018-06-20T04:37:24.595Z,101792.21
2018-06-20T04:39:53.859Z,101791.89
2018-06-20T04:42:22.307Z,101793.58
2018-06-20T04:44:50.719Z,101794.27
2018-06-20T04:47:19.139Z,101795.45
2018-06-20T04:49:47.533Z,101794.95
2018-06-20T04:52:15.894Z,101795.95
2018-06-20T04:54:44.263Z,101790.38
2018-06-20T04:57:12.635Z,101792.21
2018-06-20T04:59:41.070Z,101790.88
2018-06-20T05:02:09.476Z,101798.76
2018-06-20T05:04:37.856Z,101796.28
2018-06-20T05:07:06.247Z,101784.20
2018-06-20T05:09:34.642Z,101794.27
2018-06-20T05:12:03.063Z,101786.72
2018-06-20T05:14:31.696Z,101793.77
2018-06-20T05:17:00.144Z,101796.10
2018-06-20T05:19:28.498Z,101795.27
2018-06-20T05:21:56.799Z,101795.95
2018-06-20T05:24:25.124Z,101798.12
2018-06-20T05:26:53.535Z,101800.47
2018-06-20T05:29:53.132Z,101797.28
2018-06-20T05:32:21.519Z,101795.45
2018-06-20T05:34:49.912Z,101791.23
2018-06-20T05:37:18.393Z,101795.59
2018-06-20T05:39:46.837Z,101794.44
2018-06-20T05:42:15.262Z,101784.90
2018-06-20T05:44:44.004Z,101788.61
2018-06-20T05:47:12.363Z,101793.97
2018-06-20T05:49:40.773Z,101790.47
2018-06-20T05:52:09.160Z,101791.99
2018-06-20T05:54:37.499Z,101784.26
2018-06-20T05:57:05.853Z,101784.26
2018-06-20T05:59:34.292Z,101783.09
2018-06-20T06:02:02.699Z,101781.76
2018-06-20T06:04:31.120Z,101782.59
2018-06-20T06:06:59.492Z,101780.27
2018-06-20T06:09:27.887Z,101781.63
2018-06-20T06:11:56.354Z,101784.14
2018-06-20T06:14:24.712Z,101786.01
2018-06-20T06:16:53.167Z,101788.34
2018-06-20T06:19:21.519Z,101789.36
2018-06-20T06:21:50.187Z,101782.31
2018-06-20T06:24:18.552Z,101778.63
2018-06-20T06:26:46.955Z,101784.34
2018-06-20T06:29:15.307Z,101779.48
2018-06-20T06:31:43.734Z,101775.80
2018-06-20T06:34:12.199Z,101782.69
2018-06-20T06:36:40.588Z,101785.36
2018-06-20T06:39:11.076Z,101782.52
2018-06-20T06:41:39.590Z,101783.20
2018-06-20T06:44:08.011Z,101780.69
2018-06-20T06:46:36.431Z,101783.72
2018-06-20T06:49:04.870Z,101777.01
2018-06-20T06:51:33.251Z,101776.34
2018-06-20T06:54:01.624Z,101775.00
2018-06-20T06:56:30.027Z,101774.00
2018-06-20T06:58:58.460Z,101763.27
2018-06-20T07:01:32.115Z,101770.98
2018-06-20T07:04:00.518Z,101772.48
2018-06-20T07:06:28.836Z,101781.88
2018-06-20T07:08:57.243Z,101776.15
2018-06-20T07:11:25.661Z,101776.31
2018-06-20T07:13:54.086Z,101773.98
2018-06-20T07:16:22.646Z,101774.98
2018-06-20T07:18:51.039Z,101774.14
2018-06-20T07:21:19.463Z,101775.48
2018-06-20T07:23:47.823Z,101775.97
2018-06-20T07:26:16.224Z,101766.94
2018-06-20T07:28:44.655Z,101760.42
2018-06-20T07:31:13.083Z,101760.58
2018-06-20T07:33:41.512Z,101760.30
2018-06-20T07:36:09.992Z,101762.98
2018-06-20T07:38:38.355Z,101761.66
2018-06-20T07:41:06.741Z,101759.28
2018-06-20T07:43:35.188Z,101759.63
2018-06-20T07:46:03.591Z,101760.48
2018-06-20T07:48:32.179Z,101753.94
2018-06-20T07:51:00.535Z,101751.73
2018-06-20T07:53:28.879Z,101756.93
2018-06-20T07:55:57.211Z,101752.91
2018-06-20T07:58:30.846Z,101761.30
2018-06-20T08:01:04.520Z,101757.77
2018-06-20T08:03:38.251Z,101756.59
2018-06-20T08:06:11.830Z,101762.64
2018-06-20T08:08:45.478Z,101761.80
2018-06-20T08:11:19.200Z,101758.27
2018-06-20T08:13:52.862Z,101754.92
2018-06-20T08:16:26.571Z,101748.21
2018-06-20T08:19:00.235Z,101748.52
2018-06-20T08:21:28.647Z,101743.15
2018-06-20T08:23:57.023Z,101744.16
2018-06-20T08:26:25.424Z,101750.03
2018-06-20T08:28:53.812Z,101747.85
2018-06-20T08:31:22.167Z,101748.02
2018-06-20T08:33:50.595Z,101751.03
2018-06-20T08:36:18.951Z,101742.48
2018-06-20T08:38:47.357Z,101748.52
2018-06-20T08:41:15.755Z,101747.85
2018-06-20T08:43:44.197Z,101749.20
2018-06-20T08:46:12.572Z,101747.35
2018-06-20T08:48:40.875Z,101743.28
2018-06-20T08:51:09.231Z,101744.46
2018-06-20T08:53:37.663Z,101740.42
2018-06-20T08:56:06.091Z,101737.39
2018-06-20T08:58:34.779Z,101732.98
2018-06-20T09:01:03.603Z,101729.28
2018-06-20T09:03:32.029Z,101730.28
2018-06-20T09:06:05.516Z,101730.79
2018-06-20T09:08:39.205Z,101730.62
2018-06-20T09:11:12.921Z,101729.46
2018-06-20T09:13:45.430Z,101730.34
2018-06-20T09:16:19.123Z,101724.46
2018-06-20T09:18:52.733Z,101718.25
2018-06-20T09:21:21.142Z,101717.74
2018-06-20T09:23:49.643Z,101713.88
2018-06-20T09:26:18.063Z,101710.14
2018-06-20T09:28:46.479Z,101714.48
2018-06-20T09:31:14.798Z,101710.06
2018-06-20T09:33:43.183Z,101699.73
2018-06-20T09:36:11.596Z,101697.18
2018-06-20T09:38:40.004Z,101702.33
2018-06-20T09:41:08.328Z,101699.75
2018-06-20T09:43:36.834Z,101697.70
2018-06-20T09:46:05.223Z,101696.46
2018-06-20T09:48:33.608Z,101695.60
2018-06-20T09:51:01.984Z,101695.42
2018-06-20T09:53:30.416Z,101695.94
2018-06-20T09:55:58.886Z,101692.89
2018-06-20T09:58:27.321Z,101694.03
2018-06-20T10:01:01.052Z,101690.45
2018-06-20T10:04:32.615Z,101683.03
2018-06-20T10:07:06.336Z,101680.70
2018-06-20T10:09:40.022Z,101684.28
2018-06-20T10:12:16.536Z,101680.45
2018-06-20T10:14:45.012Z,101679.18
2018-06-20T10:17:13.427Z,101673.16
2018-06-20T10:19:41.980Z,101669.30
2018-06-20T10:22:10.408Z,101669.95
2018-06-20T10:24:38.738Z,101673.97
2018-06-20T10:27:07.119Z,101670.39
2018-06-20T10:29:35.580Z,101665.67
2018-06-20T10:32:03.991Z,101666.81
2018-06-20T10:34:32.431Z,101663.86
2018-06-20T10:37:00.854Z,101660.42
2018-06-20T10:39:29.427Z,101658.98
2018-06-20T10:41:58.004Z,101654.49
2018-06-20T10:44:26.440Z,101659.09
2018-06-20T10:47:00.387Z,101651.59
2018-06-20T10:49:28.858Z,101654.77
2018-06-20T10:51:57.291Z,101655.77
2018-06-20T10:54:25.993Z,101649.20
2018-06-20T10:56:59.619Z,101644.66
2018-06-20T10:59:33.325Z,101638.45
2018-06-20T11:02:06.975Z,101638.77
2018-06-20T11:04:40.737Z,101632.53
2018-06-20T11:07:14.211Z,101623.72
2018-06-20T11:09:47.920Z,101619.90
2018-06-20T11:12:21.426Z,101623.50
2018-06-20T11:14:49.996Z,101624.22
2018-06-20T11:17:18.343Z,101620.80
2018-06-20T11:19:47.705Z,101629.56
2018-06-20T11:22:16.152Z,101621.46
2018-06-20T11:24:44.592Z,101610.96
2018-06-20T11:27:12.979Z,101610.13
2018-06-20T11:29:41.304Z,101605.45
2018-06-20T11:32:09.778Z,101607.05
2018-06-20T11:34:38.195Z,101603.80
2018-06-20T11:37:06.657Z,101596.58
2018-06-20T11:39:35.200Z,101596.73
2018-06-20T11:42:03.580Z,101587.17
2018-06-20T11:44:32.168Z,101578.52
2018-06-20T11:47:05.943Z,101572.43
2018-06-20T11:49:34.385Z,101569.91
2018-06-20T11:52:06.928Z,101566.91
2018-06-20T11:54:35.320Z,101568.02
2018-06-20T11:57:03.723Z,101568.61
2018-06-20T11:59:37.510Z,101572.20
2018-06-20T12:02:11.307Z,101563.09
2018-06-20T12:04:45.006Z,101560.45
2018-06-20T12:07:18.708Z,101559.55
2018-06-20T12:09:52.367Z,101547.73
2018-06-20T12:12:26.128Z,101538.37
2018-06-20T12:14:59.851Z,101556.03
2018-06-20T12:17:33.559Z,101542.41
2018-06-20T12:20:07.278Z,101551.48
2018-06-20T12:22:40.819Z,101544.77
2018-06-20T12:25:14.427Z,101536.09
2018-06-20T12:27:48.259Z,101527.17
2018-06-20T12:30:21.972Z,101520.88
2018-06-20T12:32:55.507Z,101523.33
2018-06-20T12:35:29.199Z,101522.58
2018-06-20T12:38:02.907Z,101522.61
2018-06-20T12:40:36.563Z,101520.00
2018-06-20T12:43:10.272Z,101523.25
2018-06-20T12:45:39.145Z,101526.06
2018-06-20T12:48:07.648Z,101520.75
2018-06-20T12:50:36.045Z,101523.08
2018-06-20T12:53:04.435Z,101516.09
2018-06-20T12:55:32.879Z,101522.42
2018-06-20T12:58:01.320Z,101519.36
2018-06-20T13:00:29.676Z,101520.22
2018-06-20T13:02:58.063Z,101512.59
2018-06-20T13:05:26.500Z,101510.61
2018-06-20T13:07:54.912Z,101502.11
2018-06-20T13:10:23.297Z,101497.54
2018-06-20T13:12:51.620Z,101501.34
2018-06-20T13:15:19.994Z,101503.17
2018-06-20T13:17:48.444Z,101497.13
2018-06-20T13:20:16.937Z,101490.20
2018-06-20T13:22:45.340Z,101487.18
2018-06-20T13:25:13.762Z,101488.67
2018-06-20T13:27:47.914Z,101493.21
2018-06-20T13:30:16.693Z,101488.66
2018-06-20T13:32:50.396Z,101492.66
2018-06-20T13:35:23.869Z,101478.48
2018-06-20T13:37:57.567Z,101474.55
2018-06-20T13:40:31.127Z,101475.02
2018-06-20T13:43:04.834Z,101466.23
2018-06-20T13:45:38.629Z,101471.03
2018-06-20T13:48:12.228Z,101466.83
2018-06-20T13:50:40.613Z,101458.94
2018-06-20T13:53:09.088Z,101460.54
2018-06-20T13:55:37.559Z,101460.91
2018-06-20T13:58:06.056Z,101459.61
2018-06-20T14:00:34.483Z,101448.36
2018-06-20T14:03:02.966Z,101454.80
2018-06-20T14:05:31.340Z,101449.92
2018-06-20T14:07:59.762Z,101446.56
2018-06-20T14:10:28.127Z,101443.54
2018-06-20T14:12:56.573Z,101444.00
2018-06-20T14:15:25.019Z,101447.68
2018-06-20T14:17:53.516Z,101437.33
2018-06-20T14:20:27.284Z,101431.31
2018-06-20T14:22:56.791Z,101433.23
2018-06-20T14:25:25.237Z,101436.13
2018-06-20T14:27:53.637Z,101433.95
2018-06-20T14:30:27.643Z,101437.21
2018-06-20T14:33:01.338Z,101430.78
2018-06-20T14:35:35.606Z,101432.67
2018-06-20T14:38:09.295Z,101436.14
2018-06-20T14:41:15.793Z,101438.62
2018-06-20T14:43:49.524Z,101428.20
2018-06-20T14:46:20.817Z,101425.17
2018-06-20T14:48:49.199Z,101431.14
2018-06-20T14:51:18.072Z,101424.80
2018-06-20T14:53:47.080Z,101427.06
2018-06-20T14:56:16.420Z,101411.09
2018-06-20T14:58:45.073Z,101416.98
2018-06-20T15:01:13.478Z,101411.16
2018-06-20T15:03:42.032Z,101405.53
2018-06-20T15:06:10.441Z,101405.91
2018-06-20T15:08:38.909Z,101409.51
2018-06-20T15:11:07.477Z,101407.05
2018-06-20T15:13:35.898Z,101410.41
2018-06-20T15:16:09.668Z,101403.04
2018-06-20T15:18:38.013Z,101399.87
2018-06-20T15:21:06.553Z,101394.73
2018-06-20T15:23:35.424Z,101386.95
2018-06-20T15:26:09.358Z,101384.46
2018-06-20T15:28:43.033Z,101379.63
2018-06-20T15:31:16.680Z,101377.51
2018-06-20T15:33:50.459Z,101380.00
2018-06-20T15:36:24.203Z,101369.72
2018-06-20T15:38:52.672Z,101377.77
2018-06-20T15:41:21.110Z,101376.48
2018-06-20T15:43:49.602Z,101367.67
2018-06-20T15:46:18.124Z,101363.80
2018-06-20T15:48:46.563Z,101358.61
2018-06-20T15:51:14.973Z,101359.61
2018-06-20T15:53:43.349Z,101350.81
2018-06-20T15:56:11.779Z,101358.61
2018-06-20T15:58:40.468Z,101347.09
2018-06-20T16:01:08.916Z,101347.55
2018-06-20T16:03:37.284Z,101345.77
2018-06-20T16:06:05.658Z,101335.34
2018-06-20T16:08:38.308Z,101341.78
2018-06-20T16:11:06.928Z,101342.95
2018-06-20T16:13:35.429Z,101329.38
2018-06-20T16:16:05.310Z,101322.02
2018-06-20T16:18:33.685Z,101326.53
2018-06-20T16:21:07.387Z,101326.81
2018-06-20T16:23:41.120Z,101324.75
2018-06-20T16:27:15.702Z,101322.12
2018-06-20T16:29:49.620Z,101320.52
2018-06-20T16:32:18.059Z,101322.46
2018-06-20T16:34:46.486Z,101316.70
2018-06-20T16:37:15.905Z,101319.72
2018-06-20T16:39:44.533Z,101319.73
2018-06-20T16:42:12.967Z,101316.95
2018-06-20T16:44:41.375Z,101322.14
2018-06-20T16:47:09.835Z,101315.53
2018-06-20T16:49:38.287Z,101315.76
2018-06-20T16:52:06.811Z,101308.61
2018-06-20T16:54:36.013Z,101307.23
2018-06-20T16:57:04.598Z,101303.98
2018-06-20T16:59:33.218Z,101297.12
2018-06-20T17:02:06.943Z,101298.50
2018-06-20T17:04:38.388Z,101302.39
2018-06-20T17:07:08.089Z,101302.97
2018-06-20T17:09:36.554Z,101289.23
2018-06-20T17:12:10.530Z,101285.91
2018-06-20T17:14:44.328Z,101285.56
2018-06-20T17:17:18.264Z,101279.91
2018-06-20T17:19:52.013Z,101282.14
2018-06-20T17:22:25.773Z,101281.13
2018-06-20T17:25:00.516Z,101271.38
2018-06-20T17:27:28.999Z,101281.45
2018-06-20T17:29:58.031Z,101269.86
2018-06-20T17:32:26.489Z,101272.13
2018-06-20T17:34:54.937Z,101273.14
2018-06-20T17:37:23.290Z,101266.41
2018-06-20T17:39:51.664Z,101270.39
2018-06-20T17:42:20.844Z,101265.00
2018-06-20T17:44:49.280Z,101267.20
2018-06-20T17:47:17.717Z,101260.72
2018-06-20T17:49:46.275Z,101264.75
2018-06-20T17:52:14.651Z,101260.80
2018-06-20T17:54:43.040Z,101258.66
2018-06-20T17:57:12.680Z,101255.45
2018-06-20T17:59:42.567Z,101255.98
2018-06-20T18:02:12.675Z,101248.23
2018-06-20T18:04:46.728Z,101244.45
2018-06-20T18:07:20.648Z,101245.23
2018-06-20T18:09:54.209Z,101243.55
2018-06-20T18:13:00.015Z,101235.73
2018-06-20T18:15:33.684Z,101241.19
2018-06-20T18:18:02.044Z,101241.07
2018-06-20T18:20:30.404Z,101243.52
2018-06-20T18:22:58.805Z,101241.50
2018-06-20T18:25:27.265Z,101234.99
2018-06-20T18:27:55.667Z,101231.01
2018-06-20T18:30:24.077Z,101233.41
2018-06-20T18:32:52.479Z,101231.13
2018-06-20T18:35:20.835Z,101224.27
2018-06-20T18:37:49.292Z,101230.27
2018-06-20T18:40:17.655Z,101226.20
2018-06-20T18:42:45.979Z,101224.63
2018-06-20T18:45:15.024Z,101228.14
2018-06-20T18:47:49.744Z,101237.09
2018-06-20T18:50:18.131Z,101231.38
2018-06-20T18:52:46.470Z,101228.22
2018-06-20T18:55:14.869Z,101219.82
2018-06-20T18:57:48.540Z,101225.59
2018-06-20T19:00:22.132Z,101224.61
2018-06-20T19:02:55.917Z,101219.35
2018-06-20T19:05:29.666Z,101222.87
2018-06-20T19:08:03.373Z,101222.31
2018-06-20T19:10:31.774Z,101220.98
2018-06-20T19:13:00.140Z,101221.55
2018-06-20T19:15:28.799Z,101217.50
2018-06-20T19:17:57.220Z,101216.39
2018-06-20T19:20:25.759Z,101210.93
2018-06-20T19:22:54.076Z,101205.90
2018-06-20T19:25:22.474Z,101211.00
2018-06-20T19:27:50.831Z,101212.68
2018-06-20T19:30:19.285Z,101202.75
2018-06-20T19:32:47.652Z,101215.13
2018-06-20T19:35:15.997Z,101214.52
2018-06-20T19:37:44.429Z,101210.37
2018-06-20T19:40:12.819Z,101213.11
2018-06-20T19:42:41.210Z,101213.53
2018-06-20T19:45:09.591Z,101221.47
2018-06-20T19:47:37.995Z,101218.77
2018-06-20T19:50:06.358Z,101223.69
2018-06-20T19:52:34.735Z,101220.14
2018-06-20T19:55:04.094Z,101226.69
2018-06-20T19:57:32.463Z,101225.02
2018-06-20T20:00:00.881Z,101232.07
2018-06-20T20:02:29.517Z,101237.29
2018-06-20T20:04:57.861Z,101227.50
2018-06-20T20:07:26.226Z,101236.23
2018-06-20T20:09:54.699Z,101239.66
2018-06-20T20:12:23.103Z,101243.81
2018-06-20T20:14:51.579Z,101237.17
2018-06-20T20:17:19.960Z,101246.32
2018-06-20T20:19:48.341Z,101241.53
2018-06-20T20:22:16.726Z,101245.15
2018-06-20T20:24:45.059Z,101242.02
2018-06-20T20:27:13.431Z,101249.21
2018-06-20T20:29:41.843Z,101245.77
2018-06-20T20:32:10.281Z,101250.22
2018-06-20T20:34:38.665Z,101252.80
2018-06-20T20:37:07.067Z,101254.27
2018-06-20T20:39:35.496Z,101245.74
2018-06-20T20:42:03.922Z,101247.81
2018-06-20T20:44:32.336Z,101249.05
2018-06-20T20:47:00.754Z,101246.92
2018-06-20T20:49:29.113Z,101241.63
2018-06-20T20:51:57.594Z,101238.70
2018-06-20T20:54:26.048Z,101242.00
2018-06-20T20:56:54.427Z,101244.30
2018-06-20T20:59:22.836Z,101242.71
2018-06-20T21:01:51.188Z,101237.08
2018-06-20T21:04:19.544Z,101238.11
2018-06-20T21:06:47.982Z,101238.51
2018-06-20T21:09:16.372Z,101239.45
2018-06-20T21:11:44.831Z,101237.98
2018-06-20T21:14:13.218Z,101241.08
2018-06-20T21:16:41.742Z,101237.63
2018-06-20T21:19:10.100Z,101241.87
2018-06-20T21:21:38.464Z,101237.41
2018-06-20T21:24:06.818Z,101235.62
2018-06-20T21:26:35.212Z,101231.27
2018-06-20T21:29:03.612Z,101229.28
2018-06-20T21:31:32.010Z,101229.36
2018-06-20T21:34:00.381Z,101230.09
2018-06-20T21:36:28.779Z,101224.46
2018-06-20T21:38:57.103Z,101225.85
2018-06-20T21:41:25.497Z,101231.64
2018-06-20T21:43:53.905Z,101226.66
2018-06-20T21:46:22.288Z,101229.75
2018-06-20T21:48:50.634Z,101228.48
2018-06-20T21:51:18.996Z,101229.89
2018-06-20T21:53:47.415Z,101226.98
2018-06-20T21:56:15.855Z,101221.15
2018-06-20T21:58:44.260Z,101228.47
2018-06-20T22:01:12.618Z,101226.87
2018-06-20T22:03:40.961Z,101225.62
2018-06-20T22:06:09.551Z,101231.40
2018-06-20T22:08:37.953Z,101228.06
2018-06-20T22:11:06.521Z,101228.45
2018-06-20T22:13:34.945Z,101234.22
2018-06-20T22:16:03.364Z,101228.22
2018-06-20T22:18:31.733Z,101224.19
2018-06-20T22:21:00.152Z,101222.20
2018-06-20T22:23:28.503Z,101216.48
2018-06-20T22:25:56.903Z,101207.45
2018-06-20T22:28:25.250Z,101204.43
2018-06-20T22:30:53.710Z,101205.97
2018-06-20T22:33:22.022Z,101197.44
2018-06-20T22:35:50.416Z,101199.81
2018-06-20T22:38:18.819Z,101196.51
2018-06-20T22:40:47.247Z,101199.23
2018-06-20T22:43:15.651Z,101191.53
2018-06-20T22:45:44.016Z,101195.64
2018-06-20T22:48:12.367Z,101193.36
2018-06-20T22:50:40.776Z,101191.88
2018-06-20T22:53:09.287Z,101185.22
2018-06-20T22:55:37.664Z,101184.06
2018-06-20T22:58:06.076Z,101187.45
2018-06-20T23:00:34.470Z,101179.05
2018-06-20T23:03:02.861Z,101176.55
2018-06-20T23:05:31.216Z,101172.42
2018-06-20T23:07:59.626Z,101178.50
2018-06-20T23:10:28.024Z,101177.54
2018-06-20T23:12:56.412Z,101182.98
2018-06-20T23:15:24.826Z,101180.02
2018-06-20T23:17:53.309Z,101185.69
2018-06-20T23:20:21.708Z,101185.05
2018-06-20T23:22:50.104Z,101182.22
2018-06-20T23:25:18.520Z,101182.41
2018-06-20T23:27:46.926Z,101185.28
2018-06-20T23:30:15.317Z,101184.03
2018-06-20T23:32:43.640Z,101193.50
2018-06-20T23:35:12.050Z,101187.47
2018-06-20T23:37:40.418Z,101185.11
2018-06-20T23:40:08.839Z,101185.75
2018-06-20T23:42:37.217Z,101186.72
2018-06-20T23:45:05.708Z,101190.86
2018-06-20T23:47:34.176Z,101192.98
2018-06-20T23:50:02.523Z,101185.55
2018-06-20T23:52:30.933Z,101186.20
2018-06-20T23:54:59.260Z,101192.04
2018-06-20T23:57:27.626Z,101188.94
2018-06-20T23:59:56.005Z,101195.16
